| time (UTC) | temp F | wind direction | speed MPH | gust MPH | rain 1hr in | rain 24hr in | rain mn in | humidity % | barometer mb |
| 20260502214458 | 61 | 229 | 0.0 | 0.0 | 0.00 | 0.00 | 1.00 | 30 | 1013.2 |
| 20260502213941 | 61 | 229 | 0.0 | 0.0 | 0.00 | 0.00 | 1.00 | 30 | 1013.4 |
| 20260502213425 | 61 | 229 | 0.0 | 0.0 | 0.00 | 0.00 | 1.00 | 30 | 1013.3 |
| 20260502212908 | 61 | 229 | 0.0 | 0.0 | 0.00 | 0.00 | 1.00 | 30 | 1013.2 |
| 20260502212352 | 62 | 229 | 0.0 | 0.0 | 0.00 | 0.00 | 1.00 | 29 | 1013.1 |
| 20260502211835 | 62 | 228 | 0.0 | 0.0 | 0.00 | 0.00 | 1.00 | 29 | 1013.1 |
| 20260502211318 | 62 | 229 | 0.0 | 0.0 | 0.00 | 0.00 | 1.00 | 29 | 1012.9 |
| 20260502210802 | 62 | 229 | 0.0 | 0.0 | 0.00 | 0.00 | 1.00 | 30 | 1013.3 |
| 20260502210245 | 62 | 229 | 0.0 | 0.0 | 0.00 | 0.00 | 1.00 | 29 | 1013.2 |
| 20260502205728 | 62 | 229 | 0.0 | 0.0 | 0.00 | 0.00 | 1.00 | 29 | 1013.2 |
| 20260502205212 | 62 | 229 | 0.0 | 0.0 | 0.00 | 0.00 | 1.00 | 30 | 1013.1 |
| 20260502204655 | 63 | 229 | 0.0 | 0.0 | 0.00 | 0.00 | 1.00 | 30 | 1013.2 |
| 20260502204139 | 63 | 229 | 0.0 | 0.0 | 0.00 | 0.00 | 1.00 | 30 | 1012.9 |
| 20260502203622 | 63 | 229 | 0.0 | 0.0 | 0.00 | 0.00 | 1.00 | 29 | 1013.4 |
| 20260502203106 | 63 | 229 | 0.0 | 0.0 | 0.00 | 0.00 | 1.00 | 30 | 1013.3 |
| 20260502202549 | 64 | 229 | 0.0 | 0.0 | 0.00 | 0.00 | 1.00 | 29 | 1013.1 |
| 20260502202032 | 64 | 229 | 0.0 | 0.0 | 0.00 | 0.00 | 1.00 | 29 | 1013.2 |
| 20260502201516 | 64 | 229 | 0.0 | 0.0 | 0.00 | 0.00 | 1.00 | 28 | 1013.1 |
| 20260502200959 | 64 | 229 | 0.0 | 0.0 | 0.00 | 0.00 | 1.00 | 28 | 1013.1 |
| 20260502200443 | 65 | 228 | 0.0 | 0.0 | 0.00 | 0.00 | 1.00 | 28 | 1013.1 |
| 20260502195925 | 65 | 230 | 0.0 | 0.0 | 0.00 | 0.00 | 1.00 | 28 | 1012.9 |
| 20260502195409 | 66 | 232 | 0.0 | 0.0 | 0.00 | 0.00 | 1.00 | 28 | 1013.1 |
| 20260502194852 | 66 | 230 | 0.0 | 0.0 | 0.00 | 0.00 | 1.00 | 28 | 1012.7 |
| 20260502194336 | 67 | 228 | 0.0 | 0.0 | 0.00 | 0.00 | 1.00 | 26 | 1013.0 |
| 20260502193819 | 67 | 229 | 0.0 | 0.0 | 0.00 | 0.00 | 1.00 | 25 | 1012.7 |
| 20260502193303 | 67 | 230 | 0.0 | 0.0 | 0.00 | 0.00 | 1.00 | 25 | 1012.8 |
| 20260502192746 | 68 | 230 | 0.0 | 0.0 | 0.00 | 0.00 | 1.00 | 25 | 1012.7 |
| 20260502192230 | 68 | 230 | 0.0 | 0.0 | 0.00 | 0.00 | 1.00 | 25 | 1012.5 |
| 20260502191713 | 68 | 236 | 0.0 | 0.0 | 0.00 | 0.00 | 1.00 | 25 | 1012.5 |
| 20260502191156 | 69 | 227 | 0.0 | 0.0 | 0.00 | 0.00 | 1.00 | 24 | 1012.7 |
| 20260502190640 | 69 | 226 | 0.0 | 0.0 | 0.00 | 0.00 | 1.00 | 24 | 1012.6 |
| 20260502190123 | 69 | 225 | 0.0 | 0.0 | 0.00 | 0.00 | 1.00 | 23 | 1012.4 |
| 20260502185607 | 70 | 225 | 0.0 | 0.0 | 0.00 | 0.00 | 1.00 | 23 | 1012.6 |
| 20260502185050 | 70 | 225 | 0.0 | 0.0 | 0.00 | 0.00 | 1.00 | 23 | 1012.6 |
| 20260502184533 | 71 | 225 | 0.0 | 0.0 | 0.00 | 0.00 | 1.00 | 23 | 1012.6 |
| 20260502184017 | 71 | 225 | 0.0 | 0.0 | 0.00 | 0.00 | 1.00 | 22 | 1012.5 |
| 20260502183500 | 71 | 231 | 0.0 | 0.0 | 0.00 | 0.00 | 1.00 | 21 | 1012.3 |
| 20260502182944 | 72 | 232 | 0.0 | 0.0 | 0.00 | 0.00 | 1.00 | 21 | 1012.3 |
| 20260502182427 | 72 | 232 | 0.0 | 0.0 | 0.00 | 0.00 | 1.00 | 19 | 1012.3 |
| 20260502181910 | 72 | 229 | 0.0 | 0.0 | 0.00 | 0.00 | 1.00 | 19 | 1012.2 |
| 20260502181352 | 73 | 237 | 0.0 | 0.0 | 0.00 | 0.00 | 1.00 | 19 | 1012.4 |
| 20260502180835 | 73 | 229 | 0.0 | 0.0 | 0.00 | 0.00 | 1.00 | 19 | 1012.1 |
| 20260502180318 | 74 | 229 | 0.0 | 0.0 | 0.00 | 0.00 | 1.00 | 19 | 1012.1 |
| 20260502170514 | 78 | 228 | 0.0 | 0.0 | 0.00 | 0.00 | 1.00 | 14 | 1012.0 |
| 20260502163847 | 79 | 219 | 0.0 | 0.0 | 0.00 | 0.00 | 1.00 | 11 | 1012.1 |
| 20260502163328 | 79 | 236 | 0.0 | 0.0 | 0.00 | 0.00 | 1.00 | 10 | 1011.8 |
| 20260502162810 | 79 | 228 | 0.0 | 0.0 | 0.00 | 0.00 | 1.00 | 10 | 1012.1 |
| 20260502162253 | 79 | 224 | 0.0 | 0.0 | 0.00 | 0.00 | 1.00 | 11 | 1011.9 |
| 20260502161734 | 79 | 238 | 0.0 | 0.0 | 0.00 | 0.00 | 1.00 | 10 | 1012.1 |
| 20260502161218 | 79 | 236 | 0.0 | 0.0 | 0.00 | 0.00 | 1.00 | 10 | 1012.4 |
| 20260502160701 | 79 | 261 | 0.0 | 0.0 | 0.00 | 0.00 | 1.00 | 10 | 1012.2 |
| 20260502160145 | 79 | 216 | 0.0 | 0.0 | 0.00 | 0.00 | 1.00 | 10 | 1012.5 |
| 20260502151948 | 80 | 216 | 0.0 | 0.0 | 0.00 | 0.00 | 1.00 | 10 | 1012.8 |
| 20260502151431 | 80 | 224 | 0.0 | 0.0 | 0.00 | 0.00 | 1.00 | 10 | 1012.8 |
| 20260502150914 | 80 | 218 | 0.0 | 0.0 | 0.00 | 0.00 | 1.00 | 10 | 1012.8 |
| 20260502150358 | 80 | 223 | 0.0 | 0.0 | 0.00 | 0.00 | 1.00 | 10 | 1013.0 |
| 20260502130305 | 82 | 46 | 0.0 | 0.0 | 0.00 | 0.00 | 1.00 | 10 | 1014.9 |
| 20260502123636 | 81 | 198 | 0.0 | 0.0 | 0.00 | 0.00 | 1.00 | 10 | 1015.0 |
| 20260502123119 | 81 | 190 | 0.0 | 0.0 | 0.00 | 0.00 | 1.00 | 10 | 1015.1 |
| 20260502122602 | 81 | 200 | 0.0 | 0.0 | 0.00 | 0.00 | 1.00 | 10 | 1015.1 |
| 20260502122043 | 81 | 212 | 0.0 | 0.0 | 0.00 | 0.00 | 1.00 | 10 | 1015.3 |
| 20260502121526 | 81 | 241 | 0.0 | 0.0 | 0.00 | 0.00 | 1.00 | 10 | 1015.3 |
| 20260502121007 | 81 | 115 | 0.0 | 0.0 | 0.00 | 0.00 | 1.00 | 10 | 1015.6 |
| 20260502115428 | 81 | 199 | 0.0 | 0.0 | 0.00 | 0.00 | 1.00 | 12 | 1015.6 |
| 20260502114912 | 81 | 169 | 0.0 | 0.0 | 0.00 | 0.00 | 1.00 | 12 | 1015.9 |
| 20260502114355 | 80 | 215 | 0.0 | 0.0 | 0.00 | 0.00 | 1.00 | 10 | 1015.9 |
| 20260502113838 | 80 | 319 | 0.0 | 0.0 | 0.00 | 0.00 | 1.00 | 10 | 1015.8 |
| 20260502113321 | 81 | 193 | 0.0 | 0.0 | 0.00 | 0.00 | 1.00 | 10 | 1016.2 |
| 20260502112803 | 80 | 228 | 0.0 | 0.0 | 0.00 | 0.00 | 1.00 | 10 | 1016.1 |
| 20260502112246 | 80 | 234 | 0.0 | 0.0 | 0.00 | 0.00 | 1.00 | 10 | 1016.3 |
| 20260502111729 | 80 | 222 | 0.0 | 0.0 | 0.00 | 0.00 | 1.00 | 10 | 1016.2 |
| 20260502111213 | 80 | 203 | 0.0 | 0.0 | 0.00 | 0.00 | 1.00 | 10 | 1016.3 |
| 20260502110656 | 80 | 219 | 0.0 | 0.0 | 0.00 | 0.00 | 1.00 | 10 | 1016.5 |
| 20260502110140 | 80 | 185 | 0.0 | 0.0 | 0.00 | 0.00 | 1.00 | 10 | 1016.6 |
| 20260502105623 | 80 | 217 | 0.0 | 0.0 | 0.00 | 0.00 | 1.00 | 10 | 1016.4 |
| 20260502105107 | 79 | 228 | 0.0 | 0.0 | 0.00 | 0.00 | 1.00 | 10 | 1016.7 |
| 20260502104550 | 79 | 212 | 0.0 | 0.0 | 0.00 | 0.00 | 1.00 | 10 | 1016.8 |
| 20260502104034 | 79 | 238 | 0.0 | 0.0 | 0.00 | 0.00 | 1.00 | 10 | 1016.8 |
| 20260502103517 | 80 | 217 | 0.0 | 0.0 | 0.00 | 0.00 | 1.00 | 11 | 1017.0 |
| 20260502103000 | 80 | 300 | 0.0 | 0.0 | 0.00 | 0.00 | 1.00 | 10 | 1016.9 |
| 20260502102444 | 80 | 212 | 0.0 | 0.0 | 0.00 | 0.00 | 1.00 | 10 | 1017.1 |
| 20260502101928 | 80 | 318 | 0.0 | 0.0 | 0.00 | 0.00 | 1.00 | 10 | 1017.1 |
| 20260502101411 | 80 | 222 | 0.0 | 0.0 | 0.00 | 0.00 | 1.00 | 10 | 1017.2 |
| 20260502100854 | 80 | 238 | 0.0 | 0.0 | 0.00 | 0.00 | 1.00 | 12 | 1017.1 |
| 20260502100338 | 80 | 227 | 0.0 | 0.0 | 0.00 | 0.00 | 1.00 | 10 | 1017.2 |
| 20260502091052 | 76 | 222 | 0.0 | 0.0 | 0.00 | 0.00 | 1.00 | 11 | 1017.8 |
| 20260502090535 | 75 | 219 | 0.0 | 0.0 | 0.00 | 0.00 | 1.00 | 12 | 1017.8 |
| 20260502071444 | 64 | 223 | 0.0 | 0.0 | 0.00 | 0.00 | 1.00 | 21 | 1018.8 |
| 20260502070928 | 63 | 212 | 0.0 | 0.0 | 0.00 | 0.00 | 1.00 | 23 | 1019.0 |
| 20260502070411 | 62 | 224 | 0.0 | 0.0 | 0.00 | 0.00 | 1.00 | 17 | 1018.9 |
| 20260502065855 | 61 | 223 | 0.0 | 0.0 | 0.00 | 0.00 | 1.00 | 19 | 1018.7 |
| 20260502065338 | 59 | 219 | 0.0 | 0.0 | 0.00 | 0.00 | 1.00 | 20 | 1018.7 |
| 20260502064821 | 58 | 235 | 0.0 | 0.0 | 0.00 | 0.00 | 1.00 | 22 | 1018.9 |
| 20260502064304 | 57 | 229 | 0.0 | 0.0 | 0.00 | 0.00 | 1.00 | 22 | 1018.9 |
| 20260502063745 | 55 | 229 | 0.0 | 0.0 | 0.00 | 0.00 | 1.00 | 21 | 1018.9 |
| 20260502063228 | 54 | 229 | 0.0 | 0.0 | 0.00 | 0.00 | 1.00 | 23 | 1018.8 |
| 20260502062711 | 52 | 222 | 0.0 | 0.0 | 0.00 | 0.00 | 1.00 | 25 | 1018.7 |
| 20260502062154 | 51 | 227 | 0.0 | 0.0 | 0.00 | 0.00 | 1.00 | 28 | 1018.8 |
| 20260502061635 | 51 | 229 | 0.0 | 0.0 | 0.00 | 0.00 | 1.00 | 29 | 1018.9 |
| 20260502061118 | 50 | 231 | 0.0 | 0.0 | 0.00 | 0.00 | 1.00 | 29 | 1019.0 |
| 20260502060601 | 50 | 228 | 0.0 | 0.0 | 0.00 | 0.00 | 1.00 | 29 | 1018.8 |
| 20260502060044 | 50 | 233 | 0.0 | 0.0 | 0.00 | 0.00 | 1.00 | 31 | 1019.1 |
| 20260502055527 | 49 | 231 | 0.0 | 0.0 | 0.00 | 0.00 | 1.00 | 31 | 1019.0 |
| 20260502055008 | 49 | 232 | 0.0 | 0.0 | 0.00 | 0.00 | 1.00 | 31 | 1019.1 |
| 20260502054452 | 49 | 232 | 0.0 | 0.0 | 0.00 | 0.00 | 1.00 | 32 | 1019.2 |
| 20260502053935 | 48 | 229 | 0.0 | 0.0 | 0.00 | 0.00 | 1.00 | 33 | 1019.0 |
| 20260502053419 | 48 | 229 | 0.0 | 0.0 | 0.00 | 0.00 | 1.00 | 33 | 1018.8 |
| 20260502052902 | 48 | 229 | 0.0 | 0.0 | 0.00 | 0.00 | 1.00 | 34 | 1019.0 |
| 20260502052346 | 48 | 231 | 0.0 | 0.0 | 0.00 | 0.00 | 1.00 | 33 | 1018.8 |
| 20260502051829 | 47 | 231 | 0.0 | 0.0 | 0.00 | 0.00 | 1.00 | 33 | 1018.9 |
| 20260502051313 | 47 | 232 | 0.0 | 0.0 | 0.00 | 0.00 | 1.00 | 33 | 1018.5 |
| 20260502050756 | 47 | 231 | 0.0 | 0.0 | 0.00 | 0.00 | 1.00 | 34 | 1018.9 |
| 20260502050240 | 47 | 232 | 0.0 | 0.0 | 0.00 | 0.00 | 1.00 | 35 | 1018.8 |
| 20260502045723 | 46 | 226 | 0.0 | 0.0 | 0.00 | 0.00 | 1.00 | 35 | 1018.9 |
| 20260502045207 | 46 | 226 | 0.0 | 0.0 | 0.00 | 0.00 | 1.00 | 35 | 1018.7 |
| 20260502044650 | 46 | 226 | 0.0 | 0.0 | 0.00 | 0.00 | 1.00 | 35 | 1018.8 |
| 20260502044133 | 46 | 226 | 0.0 | 0.0 | 0.00 | 0.00 | 1.00 | 36 | 1018.6 |
| 20260502043616 | 46 | 226 | 0.0 | 0.0 | 0.00 | 0.00 | 1.00 | 36 | 1018.8 |
| 20260502043059 | 46 | 226 | 0.0 | 0.0 | 0.00 | 0.00 | 1.00 | 36 | 1018.7 |
| 20260502042542 | 46 | 226 | 0.0 | 0.0 | 0.00 | 0.00 | 1.00 | 36 | 1018.8 |
| 20260502042026 | 46 | 226 | 0.0 | 0.0 | 0.00 | 0.00 | 1.00 | 36 | 1018.8 |
| 20260502041509 | 46 | 226 | 0.0 | 0.0 | 0.00 | 0.00 | 1.00 | 36 | 1018.6 |
| 20260502035446 | 46 | 229 | 0.0 | 0.0 | 0.00 | 0.00 | 1.00 | 36 | 1018.4 |
| 20260502034929 | 46 | 229 | 0.0 | 0.0 | 0.00 | 0.00 | 1.00 | 36 | 1018.9 |
| 20260502034412 | 46 | 230 | 0.0 | 0.0 | 0.00 | 0.00 | 1.00 | 35 | 1018.6 |
| 20260502033855 | 46 | 230 | 0.0 | 0.0 | 0.00 | 0.00 | 1.00 | 35 | 1018.6 |
| 20260502033337 | 46 | 229 | 0.0 | 0.0 | 0.00 | 0.00 | 1.00 | 35 | 1018.6 |
| 20260502032820 | 46 | 229 | 0.0 | 0.0 | 0.00 | 0.00 | 1.00 | 35 | 1018.6 |
| 20260502032305 | 46 | 230 | 0.0 | 0.0 | 0.00 | 0.00 | 1.00 | 35 | 1018.9 |
| 20260502031744 | 47 | 231 | 0.0 | 0.0 | 0.00 | 0.00 | 1.00 | 35 | 1018.8 |
| 20260502031227 | 47 | 231 | 0.0 | 0.0 | 0.00 | 0.00 | 1.00 | 35 | 1018.8 |
| 20260502030711 | 47 | 229 | 0.0 | 0.0 | 0.00 | 0.00 | 1.00 | 35 | 1019.1 |
| 20260502030154 | 47 | 230 | 0.0 | 0.0 | 0.00 | 0.00 | 1.00 | 35 | 1018.6 |
| 20260502025637 | 47 | 231 | 0.0 | 0.0 | 0.00 | 0.00 | 1.00 | 35 | 1018.9 |
| 20260502025118 | 47 | 231 | 0.0 | 0.0 | 0.00 | 0.00 | 1.00 | 35 | 1018.7 |
| 20260502024601 | 47 | 231 | 0.0 | 0.0 | 0.00 | 0.00 | 1.00 | 35 | 1018.7 |
| 20260502024045 | 47 | 230 | 0.0 | 0.0 | 0.00 | 0.00 | 1.00 | 35 | 1018.5 |
| 20260502023027 | 47 | 231 | 0.0 | 0.0 | 0.00 | 0.00 | 1.00 | 35 | 1018.6 |
| 20260502022510 | 47 | 231 | 0.0 | 0.0 | 0.00 | 0.00 | 1.00 | 35 | 1018.7 |
| 20260502021452 | 47 | 231 | 0.0 | 0.0 | 0.00 | 0.00 | 1.00 | 35 | 1018.7 |
| 20260502020936 | 47 | 230 | 0.0 | 0.0 | 0.00 | 0.00 | 1.00 | 35 | 1018.5 |
| 20260502020419 | 47 | 231 | 0.0 | 0.0 | 0.00 | 0.00 | 1.00 | 35 | 1018.9 |
| 20260502015903 | 47 | 230 | 0.0 | 0.0 | 0.00 | 0.00 | 1.00 | 35 | 1018.8 |
| 20260502015346 | 48 | 230 | 0.0 | 0.0 | 0.00 | 0.00 | 1.00 | 35 | 1018.8 |
| 20260502014830 | 48 | 231 | 0.0 | 0.0 | 0.00 | 0.00 | 1.00 | 35 | 1018.8 |
| 20260502014313 | 48 | 231 | 0.0 | 0.0 | 0.00 | 0.00 | 1.00 | 35 | 1018.7 |
| 20260502013756 | 48 | 230 | 0.0 | 0.0 | 0.00 | 0.00 | 1.00 | 35 | 1018.6 |
| 20260502013240 | 48 | 230 | 0.0 | 0.0 | 0.00 | 0.00 | 1.00 | 35 | 1018.8 |
| 20260502012723 | 48 | 230 | 0.0 | 0.0 | 0.00 | 0.00 | 1.00 | 35 | 1018.7 |
| 20260502012207 | 48 | 231 | 0.0 | 0.0 | 0.00 | 0.00 | 1.00 | 35 | 1018.7 |
| 20260502011650 | 48 | 230 | 0.0 | 0.0 | 0.00 | 0.00 | 1.00 | 35 | 1018.9 |
| 20260502011134 | 48 | 230 | 0.0 | 0.0 | 0.00 | 0.00 | 1.00 | 35 | 1018.9 |
| 20260502010618 | 48 | 231 | 0.0 | 0.0 | 0.00 | 0.00 | 1.00 | 34 | 1018.9 |
| 20260502010101 | 48 | 231 | 0.0 | 0.0 | 0.00 | 0.00 | 1.00 | 33 | 1018.9 |
| 20260502005544 | 49 | 230 | 0.0 | 0.0 | 0.00 | 0.00 | 1.00 | 33 | 1018.8 |
| 20260502005028 | 49 | 230 | 0.0 | 0.0 | 0.00 | 0.00 | 1.00 | 33 | 1018.9 |
| 20260502003508 | 49 | 232 | 0.0 | 0.0 | 0.00 | 0.00 | 1.00 | 33 | 1018.9 |
| 20260502002450 | 49 | 231 | 0.0 | 0.0 | 0.00 | 0.00 | 1.00 | 33 | 1018.9 |
| 20260502001933 | 50 | 231 | 0.0 | 0.0 | 0.00 | 0.00 | 1.00 | 33 | 1018.9 |
| 20260502001416 | 50 | 234 | 0.0 | 0.0 | 0.00 | 0.00 | 1.00 | 33 | 1019.0 |
| 20260502000859 | 50 | 239 | 0.0 | 0.0 | 0.00 | 0.00 | 1.00 | 32 | 1019.0 |
| 20260502000343 | 50 | 224 | 0.0 | 0.0 | 0.00 | 0.00 | 1.00 | 32 | 1018.9 |
| 20260501235826 | 50 | 220 | 0.0 | 0.0 | 0.00 | 0.00 | 1.00 | 33 | 1019.0 |
| 20260501235309 | 50 | 225 | 0.0 | 0.0 | 0.00 | 0.00 | 1.00 | 33 | 1018.9 |
| 20260501234753 | 51 | 224 | 0.0 | 0.0 | 0.00 | 0.00 | 1.00 | 32 | 1019.0 |
| 20260501234236 | 51 | 225 | 0.0 | 0.0 | 0.00 | 0.00 | 1.00 | 31 | 1019.1 |
| 20260501233720 | 51 | 225 | 0.0 | 0.0 | 0.00 | 0.00 | 1.00 | 31 | 1019.1 |
| 20260501233203 | 51 | 225 | 0.0 | 0.0 | 0.00 | 0.00 | 1.00 | 31 | 1019.0 |
| 20260501232647 | 51 | 224 | 0.0 | 0.0 | 0.00 | 0.00 | 1.00 | 31 | 1018.9 |
| 20260501232130 | 51 | 225 | 0.0 | 0.0 | 0.00 | 0.00 | 1.00 | 31 | 1019.2 |
| 20260501231614 | 51 | 223 | 0.0 | 0.0 | 0.00 | 0.00 | 1.00 | 31 | 1018.9 |
| 20260501231057 | 51 | 224 | 0.0 | 0.0 | 0.00 | 0.00 | 1.00 | 31 | 1018.8 |
| 20260501230540 | 51 | 224 | 0.0 | 0.0 | 0.00 | 0.00 | 1.00 | 31 | 1019.2 |
| 20260501230024 | 52 | 225 | 0.0 | 0.0 | 0.00 | 0.00 | 1.00 | 30 | 1019.1 |
| 20260501225507 | 52 | 225 | 0.0 | 0.0 | 0.00 | 0.00 | 1.00 | 31 | 1019.0 |
| 20260501224448 | 52 | 225 | 0.0 | 0.0 | 0.00 | 0.00 | 1.00 | 31 | 1019.2 |
| 20260501223929 | 52 | 225 | 0.0 | 0.0 | 0.00 | 0.00 | 1.00 | 30 | 1018.7 |
| 20260501223412 | 52 | 224 | 0.0 | 0.0 | 0.00 | 0.00 | 1.00 | 30 | 1018.9 |
| 20260501222852 | 53 | 224 | 0.0 | 0.0 | 0.00 | 0.00 | 1.00 | 30 | 1018.9 |
| 20260501222336 | 53 | 229 | 0.0 | 0.0 | 0.00 | 0.00 | 1.00 | 30 | 1018.9 |
| 20260501221819 | 53 | 229 | 0.0 | 0.0 | 0.00 | 0.00 | 1.00 | 30 | 1018.8 |
| 20260501221303 | 53 | 229 | 0.0 | 0.0 | 0.00 | 0.00 | 1.00 | 30 | 1019.0 |
| 20260501220746 | 53 | 229 | 0.0 | 0.0 | 0.00 | 0.00 | 1.00 | 30 | 1018.8 |
| 20260501220229 | 53 | 228 | 0.0 | 0.0 | 0.00 | 0.00 | 1.00 | 30 | 1018.9 |
| 20260501215713 | 54 | 228 | 0.0 | 0.0 | 0.00 | 0.00 | 1.00 | 29 | 1018.8 |
| 20260501215156 | 54 | 228 | 0.0 | 0.0 | 0.00 | 0.00 | 1.00 | 29 | 1018.8 |
| 20260501214639 | 54 | 228 | 0.0 | 0.0 | 0.00 | 0.00 | 1.00 | 29 | 1018.8 |